sensor_id;sensor_type;location;lat;lon;timestamp;P1;durP1;ratioP1;P2;durP2;ratioP2
19802;SDS011;66074;50.764;6.090;2024-02-28T00:02:09;3.95;;;2.50;;
19802;SDS011;66074;50.764;6.090;2024-02-28T00:04:35;4.05;;;2.60;;
19802;SDS011;66074;50.764;6.090;2024-02-28T00:07:00;3.38;;;3.10;;
19802;SDS011;66074;50.764;6.090;2024-02-28T00:09:26;1.70;;;1.60;;
19802;SDS011;66074;50.764;6.090;2024-02-28T00:11:52;2.25;;;2.05;;
19802;SDS011;66074;50.764;6.090;2024-02-28T00:14:18;2.13;;;1.92;;
19802;SDS011;66074;50.764;6.090;2024-02-28T00:16:43;3.85;;;3.55;;
19802;SDS011;66074;50.764;6.090;2024-02-28T00:19:10;4.43;;;2.63;;
19802;SDS011;66074;50.764;6.090;2024-02-28T00:21:37;2.28;;;2.17;;
19802;SDS011;66074;50.764;6.090;2024-02-28T00:24:03;2.60;;;2.40;;
19802;SDS011;66074;50.764;6.090;2024-02-28T00:26:29;3.47;;;3.20;;
19802;SDS011;66074;50.764;6.090;2024-02-28T00:28:54;4.22;;;3.85;;
19802;SDS011;66074;50.764;6.090;2024-02-28T00:31:20;2.10;;;2.00;;
19802;SDS011;66074;50.764;6.090;2024-02-28T00:33:46;5.72;;;4.97;;
19802;SDS011;66074;50.764;6.090;2024-02-28T00:36:12;3.53;;;2.63;;
19802;SDS011;66074;50.764;6.090;2024-02-28T00:38:38;2.15;;;2.05;;
19802;SDS011;66074;50.764;6.090;2024-02-28T00:41:04;3.53;;;2.83;;
19802;SDS011;66074;50.764;6.090;2024-02-28T00:43:29;2.30;;;1.98;;
19802;SDS011;66074;50.764;6.090;2024-02-28T00:45:55;2.40;;;2.30;;
19802;SDS011;66074;50.764;6.090;2024-02-28T00:48:21;3.42;;;3.03;;
19802;SDS011;66074;50.764;6.090;2024-02-28T00:50:47;2.55;;;2.45;;
19802;SDS011;66074;50.764;6.090;2024-02-28T00:53:13;1.30;;;1.25;;
19802;SDS011;66074;50.764;6.090;2024-02-28T00:55:38;3.38;;;3.10;;
19802;SDS011;66074;50.764;6.090;2024-02-28T00:58:04;2.83;;;2.63;;
19802;SDS011;66074;50.764;6.090;2024-02-28T01:00:29;1.65;;;1.55;;
19802;SDS011;66074;50.764;6.090;2024-02-28T01:02:55;3.60;;;3.33;;
19802;SDS011;66074;50.764;6.090;2024-02-28T01:05:21;2.13;;;2.03;;
19802;SDS011;66074;50.764;6.090;2024-02-28T01:07:46;4.43;;;3.92;;
19802;SDS011;66074;50.764;6.090;2024-02-28T01:10:12;3.55;;;3.08;;
19802;SDS011;66074;50.764;6.090;2024-02-28T01:12:37;1.67;;;1.58;;
19802;SDS011;66074;50.764;6.090;2024-02-28T01:15:03;2.22;;;1.88;;
19802;SDS011;66074;50.764;6.090;2024-02-28T01:17:29;5.60;;;2.28;;
19802;SDS011;66074;50.764;6.090;2024-02-28T01:19:55;2.08;;;1.88;;
19802;SDS011;66074;50.764;6.090;2024-02-28T01:22:20;3.10;;;2.83;;
19802;SDS011;66074;50.764;6.090;2024-02-28T01:24:46;2.33;;;2.22;;
19802;SDS011;66074;50.764;6.090;2024-02-28T01:27:12;2.75;;;2.55;;
19802;SDS011;66074;50.764;6.090;2024-02-28T01:29:37;2.22;;;1.98;;
19802;SDS011;66074;50.764;6.090;2024-02-28T01:32:03;2.80;;;2.33;;
19802;SDS011;66074;50.764;6.090;2024-02-28T01:34:29;2.63;;;2.45;;
19802;SDS011;66074;50.764;6.090;2024-02-28T01:36:54;3.22;;;3.00;;
19802;SDS011;66074;50.764;6.090;2024-02-28T01:39:20;1.20;;;1.15;;
19802;SDS011;66074;50.764;6.090;2024-02-28T01:41:54;3.10;;;2.88;;
19802;SDS011;66074;50.764;6.090;2024-02-28T01:44:20;3.08;;;2.80;;
19802;SDS011;66074;50.764;6.090;2024-02-28T01:46:46;1.23;;;1.23;;
19802;SDS011;66074;50.764;6.090;2024-02-28T01:49:12;2.47;;;2.35;;
19802;SDS011;66074;50.764;6.090;2024-02-28T01:51:39;2.35;;;2.25;;
19802;SDS011;66074;50.764;6.090;2024-02-28T01:54:06;4.03;;;3.75;;
19802;SDS011;66074;50.764;6.090;2024-02-28T01:56:31;3.72;;;3.42;;
19802;SDS011;66074;50.764;6.090;2024-02-28T01:58:57;0.98;;;0.98;;
19802;SDS011;66074;50.764;6.090;2024-02-28T02:01:24;3.80;;;2.08;;
19802;SDS011;66074;50.764;6.090;2024-02-28T02:03:51;2.78;;;2.58;;
19802;SDS011;66074;50.764;6.090;2024-02-28T02:06:17;4.93;;;4.53;;
19802;SDS011;66074;50.764;6.090;2024-02-28T02:08:43;4.75;;;3.08;;
19802;SDS011;66074;50.764;6.090;2024-02-28T02:11:08;3.00;;;2.80;;
19802;SDS011;66074;50.764;6.090;2024-02-28T02:13:34;2.80;;;2.60;;
19802;SDS011;66074;50.764;6.090;2024-02-28T02:16:00;3.13;;;2.10;;
19802;SDS011;66074;50.764;6.090;2024-02-28T02:18:26;3.63;;;1.60;;
19802;SDS011;66074;50.764;6.090;2024-02-28T02:20:58;2.55;;;2.42;;
19802;SDS011;66074;50.764;6.090;2024-02-28T02:23:27;1.77;;;1.55;;
19802;SDS011;66074;50.764;6.090;2024-02-28T02:25:53;2.53;;;1.73;;
19802;SDS011;66074;50.764;6.090;2024-02-28T02:28:18;3.65;;;2.35;;
19802;SDS011;66074;50.764;6.090;2024-02-28T02:30:44;3.10;;;1.92;;
19802;SDS011;66074;50.764;6.090;2024-02-28T02:33:12;2.35;;;2.25;;
19802;SDS011;66074;50.764;6.090;2024-02-28T02:35:37;4.53;;;4.03;;
19802;SDS011;66074;50.764;6.090;2024-02-28T02:38:03;2.28;;;2.10;;
19802;SDS011;66074;50.764;6.090;2024-02-28T02:40:28;2.97;;;2.78;;
19802;SDS011;66074;50.764;6.090;2024-02-28T02:42:54;2.13;;;1.45;;
19802;SDS011;66074;50.764;6.090;2024-02-28T02:45:20;3.75;;;2.90;;
19802;SDS011;66074;50.764;6.090;2024-02-28T02:47:45;3.08;;;2.67;;
19802;SDS011;66074;50.764;6.090;2024-02-28T02:50:11;3.90;;;3.58;;
19802;SDS011;66074;50.764;6.090;2024-02-28T02:52:37;2.63;;;2.13;;
19802;SDS011;66074;50.764;6.090;2024-02-28T02:55:03;2.13;;;2.03;;
19802;SDS011;66074;50.764;6.090;2024-02-28T02:57:29;3.35;;;3.13;;
19802;SDS011;66074;50.764;6.090;2024-02-28T02:59:59;5.13;;;3.67;;
19802;SDS011;66074;50.764;6.090;2024-02-28T03:02:24;4.10;;;2.00;;
19802;SDS011;66074;50.764;6.090;2024-02-28T03:04:50;2.83;;;2.63;;
19802;SDS011;66074;50.764;6.090;2024-02-28T03:07:15;3.03;;;2.80;;
19802;SDS011;66074;50.764;6.090;2024-02-28T03:09:41;2.55;;;2.35;;
19802;SDS011;66074;50.764;6.090;2024-02-28T03:12:07;2.17;;;2.08;;
19802;SDS011;66074;50.764;6.090;2024-02-28T03:14:34;2.75;;;2.50;;
19802;SDS011;66074;50.764;6.090;2024-02-28T03:17:00;4.85;;;2.00;;
19802;SDS011;66074;50.764;6.090;2024-02-28T03:19:26;5.03;;;2.63;;
19802;SDS011;66074;50.764;6.090;2024-02-28T03:21:52;2.20;;;2.10;;
19802;SDS011;66074;50.764;6.090;2024-02-28T03:24:18;1.73;;;1.63;;
19802;SDS011;66074;50.764;6.090;2024-02-28T03:26:43;3.67;;;1.88;;
19802;SDS011;66074;50.764;6.090;2024-02-28T03:29:09;4.00;;;3.70;;
19802;SDS011;66074;50.764;6.090;2024-02-28T03:31:35;3.75;;;2.83;;
19802;SDS011;66074;50.764;6.090;2024-02-28T03:34:00;4.07;;;3.78;;
19802;SDS011;66074;50.764;6.090;2024-02-28T03:36:27;2.28;;;2.17;;
19802;SDS011;66074;50.764;6.090;2024-02-28T03:38:53;2.85;;;2.60;;
19802;SDS011;66074;50.764;6.090;2024-02-28T03:41:19;2.95;;;2.53;;
19802;SDS011;66074;50.764;6.090;2024-02-28T03:43:44;3.53;;;3.20;;
19802;SDS011;66074;50.764;6.090;2024-02-28T03:46:10;3.10;;;2.42;;
19802;SDS011;66074;50.764;6.090;2024-02-28T03:48:35;2.60;;;2.40;;
19802;SDS011;66074;50.764;6.090;2024-02-28T03:51:01;6.88;;;2.20;;
19802;SDS011;66074;50.764;6.090;2024-02-28T03:53:27;3.95;;;3.65;;
19802;SDS011;66074;50.764;6.090;2024-02-28T03:55:52;3.15;;;2.95;;
19802;SDS011;66074;50.764;6.090;2024-02-28T03:58:18;2.90;;;2.70;;
19802;SDS011;66074;50.764;6.090;2024-02-28T04:00:43;3.13;;;2.45;;
19802;SDS011;66074;50.764;6.090;2024-02-28T04:03:09;1.77;;;1.70;;
19802;SDS011;66074;50.764;6.090;2024-02-28T04:05:35;2.42;;;2.28;;
19802;SDS011;66074;50.764;6.090;2024-02-28T04:08:00;2.22;;;2.00;;
19802;SDS011;66074;50.764;6.090;2024-02-28T04:10:26;2.30;;;2.20;;
19802;SDS011;66074;50.764;6.090;2024-02-28T04:12:52;1.77;;;1.67;;
19802;SDS011;66074;50.764;6.090;2024-02-28T04:15:17;1.90;;;1.80;;
19802;SDS011;66074;50.764;6.090;2024-02-28T04:17:43;2.55;;;2.13;;
19802;SDS011;66074;50.764;6.090;2024-02-28T04:20:12;1.77;;;1.67;;
19802;SDS011;66074;50.764;6.090;2024-02-28T04:22:38;1.75;;;1.65;;
19802;SDS011;66074;50.764;6.090;2024-02-28T04:25:05;2.65;;;2.45;;
19802;SDS011;66074;50.764;6.090;2024-02-28T04:27:32;5.35;;;3.88;;
19802;SDS011;66074;50.764;6.090;2024-02-28T04:29:58;4.20;;;1.90;;
19802;SDS011;66074;50.764;6.090;2024-02-28T04:32:24;3.38;;;2.85;;
19802;SDS011;66074;50.764;6.090;2024-02-28T04:34:49;7.28;;;2.45;;
19802;SDS011;66074;50.764;6.090;2024-02-28T04:37:15;3.63;;;2.30;;
19802;SDS011;66074;50.764;6.090;2024-02-28T04:39:40;3.17;;;1.83;;
19802;SDS011;66074;50.764;6.090;2024-02-28T04:42:06;3.45;;;2.63;;
19802;SDS011;66074;50.764;6.090;2024-02-28T04:44:32;3.33;;;1.95;;
19802;SDS011;66074;50.764;6.090;2024-02-28T04:46:58;1.50;;;1.40;;
19802;SDS011;66074;50.764;6.090;2024-02-28T04:49:23;1.65;;;1.40;;
19802;SDS011;66074;50.764;6.090;2024-02-28T04:51:49;4.05;;;2.80;;
19802;SDS011;66074;50.764;6.090;2024-02-28T04:54:14;2.17;;;2.08;;
19802;SDS011;66074;50.764;6.090;2024-02-28T04:56:40;3.63;;;1.95;;
19802;SDS011;66074;50.764;6.090;2024-02-28T04:59:07;1.95;;;1.85;;
19802;SDS011;66074;50.764;6.090;2024-02-28T05:01:41;1.48;;;1.38;;
19802;SDS011;66074;50.764;6.090;2024-02-28T05:04:08;2.00;;;1.85;;
19802;SDS011;66074;50.764;6.090;2024-02-28T05:06:34;4.47;;;1.95;;
19802;SDS011;66074;50.764;6.090;2024-02-28T05:09:00;1.60;;;1.50;;
19802;SDS011;66074;50.764;6.090;2024-02-28T05:11:26;2.55;;;2.35;;
19802;SDS011;66074;50.764;6.090;2024-02-28T05:13:52;2.22;;;2.13;;
19802;SDS011;66074;50.764;6.090;2024-02-28T05:16:18;2.85;;;2.65;;
19802;SDS011;66074;50.764;6.090;2024-02-28T05:18:46;1.50;;;1.40;;
19802;SDS011;66074;50.764;6.090;2024-02-28T05:21:12;3.65;;;2.95;;
19802;SDS011;66074;50.764;6.090;2024-02-28T05:23:39;2.47;;;2.28;;
19802;SDS011;66074;50.764;6.090;2024-02-28T05:26:05;4.15;;;3.13;;
19802;SDS011;66074;50.764;6.090;2024-02-28T05:28:34;2.45;;;2.25;;
19802;SDS011;66074;50.764;6.090;2024-02-28T05:31:03;1.77;;;1.67;;
19802;SDS011;66074;50.764;6.090;2024-02-28T05:33:45;2.10;;;1.58;;
19802;SDS011;66074;50.764;6.090;2024-02-28T05:36:11;3.05;;;2.50;;
19802;SDS011;66074;50.764;6.090;2024-02-28T05:38:37;2.00;;;1.80;;
19802;SDS011;66074;50.764;6.090;2024-02-28T05:41:02;2.85;;;2.75;;
19802;SDS011;66074;50.764;6.090;2024-02-28T05:43:28;6.43;;;2.72;;
19802;SDS011;66074;50.764;6.090;2024-02-28T05:45:53;9.45;;;2.45;;
19802;SDS011;66074;50.764;6.090;2024-02-28T05:48:19;1.75;;;1.67;;
19802;SDS011;66074;50.764;6.090;2024-02-28T05:50:45;2.65;;;2.30;;
19802;SDS011;66074;50.764;6.090;2024-02-28T05:53:11;3.88;;;3.47;;
19802;SDS011;66074;50.764;6.090;2024-02-28T05:55:36;3.15;;;2.05;;
19802;SDS011;66074;50.764;6.090;2024-02-28T05:58:02;3.72;;;2.45;;
19802;SDS011;66074;50.764;6.090;2024-02-28T06:00:28;3.38;;;2.33;;
19802;SDS011;66074;50.764;6.090;2024-02-28T06:02:54;4.80;;;2.58;;
19802;SDS011;66074;50.764;6.090;2024-02-28T06:05:19;3.42;;;3.17;;
19802;SDS011;66074;50.764;6.090;2024-02-28T06:07:45;3.58;;;3.30;;
19802;SDS011;66074;50.764;6.090;2024-02-28T06:10:11;3.28;;;1.95;;
19802;SDS011;66074;50.764;6.090;2024-02-28T06:12:36;3.25;;;1.80;;
19802;SDS011;66074;50.764;6.090;2024-02-28T06:15:02;2.25;;;1.70;;
19802;SDS011;66074;50.764;6.090;2024-02-28T06:17:29;1.75;;;1.65;;
19802;SDS011;66074;50.764;6.090;2024-02-28T06:19:54;1.77;;;1.67;;
19802;SDS011;66074;50.764;6.090;2024-02-28T06:22:20;2.15;;;2.05;;
19802;SDS011;66074;50.764;6.090;2024-02-28T06:24:46;2.85;;;2.65;;
19802;SDS011;66074;50.764;6.090;2024-02-28T06:27:11;3.85;;;1.60;;
19802;SDS011;66074;50.764;6.090;2024-02-28T06:29:37;1.60;;;1.50;;
19802;SDS011;66074;50.764;6.090;2024-02-28T06:32:03;1.42;;;1.33;;
19802;SDS011;66074;50.764;6.090;2024-02-28T06:34:29;2.85;;;2.67;;
19802;SDS011;66074;50.764;6.090;2024-02-28T06:36:54;2.20;;;2.10;;
19802;SDS011;66074;50.764;6.090;2024-02-28T06:39:20;1.73;;;1.63;;
19802;SDS011;66074;50.764;6.090;2024-02-28T06:41:46;1.48;;;1.45;;
19802;SDS011;66074;50.764;6.090;2024-02-28T06:44:19;2.30;;;2.03;;
19802;SDS011;66074;50.764;6.090;2024-02-28T06:46:45;3.78;;;3.45;;
19802;SDS011;66074;50.764;6.090;2024-02-28T06:49:11;0.98;;;0.98;;
19802;SDS011;66074;50.764;6.090;2024-02-28T06:51:36;0.90;;;0.90;;
19802;SDS011;66074;50.764;6.090;2024-02-28T06:54:02;2.22;;;2.13;;
19802;SDS011;66074;50.764;6.090;2024-02-28T06:56:28;2.10;;;1.90;;
19802;SDS011;66074;50.764;6.090;2024-02-28T06:58:55;1.30;;;1.30;;
19802;SDS011;66074;50.764;6.090;2024-02-28T07:01:21;1.98;;;1.85;;
19802;SDS011;66074;50.764;6.090;2024-02-28T07:03:46;4.97;;;3.15;;
19802;SDS011;66074;50.764;6.090;2024-02-28T07:06:12;3.17;;;2.97;;
19802;SDS011;66074;50.764;6.090;2024-02-28T07:08:38;1.95;;;1.85;;
19802;SDS011;66074;50.764;6.090;2024-02-28T07:11:03;1.95;;;1.80;;
19802;SDS011;66074;50.764;6.090;2024-02-28T07:13:29;3.35;;;1.48;;
19802;SDS011;66074;50.764;6.090;2024-02-28T07:15:54;2.78;;;2.53;;
19802;SDS011;66074;50.764;6.090;2024-02-28T07:18:22;1.17;;;1.10;;
19802;SDS011;66074;50.764;6.090;2024-02-28T07:20:50;1.58;;;1.25;;
19802;SDS011;66074;50.764;6.090;2024-02-28T07:23:17;3.95;;;1.85;;
19802;SDS011;66074;50.764;6.090;2024-02-28T07:25:42;2.20;;;2.05;;
19802;SDS011;66074;50.764;6.090;2024-02-28T07:28:08;3.92;;;3.63;;
19802;SDS011;66074;50.764;6.090;2024-02-28T07:30:34;1.73;;;1.63;;
19802;SDS011;66074;50.764;6.090;2024-02-28T07:33:00;2.80;;;1.85;;
19802;SDS011;66074;50.764;6.090;2024-02-28T07:35:26;2.38;;;2.05;;
19802;SDS011;66074;50.764;6.090;2024-02-28T07:37:52;0.95;;;0.95;;
19802;SDS011;66074;50.764;6.090;2024-02-28T07:40:17;1.67;;;1.58;;
19802;SDS011;66074;50.764;6.090;2024-02-28T07:42:43;1.25;;;1.25;;
19802;SDS011;66074;50.764;6.090;2024-02-28T07:45:09;1.65;;;1.58;;
19802;SDS011;66074;50.764;6.090;2024-02-28T07:47:35;1.65;;;1.52;;
19802;SDS011;66074;50.764;6.090;2024-02-28T07:50:00;0.50;;;0.50;;
19802;SDS011;66074;50.764;6.090;2024-02-28T07:52:26;2.25;;;2.13;;
19802;SDS011;66074;50.764;6.090;2024-02-28T07:54:51;1.17;;;1.15;;
19802;SDS011;66074;50.764;6.090;2024-02-28T07:57:17;2.58;;;2.38;;
19802;SDS011;66074;50.764;6.090;2024-02-28T07:59:43;1.50;;;1.40;;
19802;SDS011;66074;50.764;6.090;2024-02-28T08:02:09;1.42;;;1.42;;
19802;SDS011;66074;50.764;6.090;2024-02-28T08:04:36;2.83;;;1.70;;
19802;SDS011;66074;50.764;6.090;2024-02-28T08:07:02;2.58;;;2.40;;
19802;SDS011;66074;50.764;6.090;2024-02-28T08:09:28;2.35;;;1.98;;
19802;SDS011;66074;50.764;6.090;2024-02-28T08:11:54;2.00;;;1.58;;
19802;SDS011;66074;50.764;6.090;2024-02-28T08:14:20;1.60;;;1.58;;
19802;SDS011;66074;50.764;6.090;2024-02-28T08:16:46;4.20;;;2.35;;
19802;SDS011;66074;50.764;6.090;2024-02-28T08:19:11;0.73;;;0.73;;
19802;SDS011;66074;50.764;6.090;2024-02-28T08:21:37;1.73;;;1.63;;
19802;SDS011;66074;50.764;6.090;2024-02-28T08:24:02;1.08;;;1.08;;
19802;SDS011;66074;50.764;6.090;2024-02-28T08:26:30;2.03;;;1.83;;
19802;SDS011;66074;50.764;6.090;2024-02-28T08:28:56;1.30;;;1.20;;
19802;SDS011;66074;50.764;6.090;2024-02-28T08:31:22;2.03;;;1.55;;
19802;SDS011;66074;50.764;6.090;2024-02-28T08:33:47;1.90;;;1.80;;
19802;SDS011;66074;50.764;6.090;2024-02-28T08:36:13;3.28;;;1.95;;
19802;SDS011;66074;50.764;6.090;2024-02-28T08:38:40;1.15;;;1.15;;
19802;SDS011;66074;50.764;6.090;2024-02-28T08:41:06;4.68;;;2.53;;
19802;SDS011;66074;50.764;6.090;2024-02-28T08:43:33;1.85;;;1.75;;
19802;SDS011;66074;50.764;6.090;2024-02-28T08:46:02;1.52;;;1.42;;
19802;SDS011;66074;50.764;6.090;2024-02-28T08:48:28;1.02;;;1.02;;
19802;SDS011;66074;50.764;6.090;2024-02-28T08:50:54;1.05;;;1.02;;
19802;SDS011;66074;50.764;6.090;2024-02-28T08:53:20;6.22;;;2.97;;
19802;SDS011;66074;50.764;6.090;2024-02-28T08:55:45;1.92;;;1.83;;
19802;SDS011;66074;50.764;6.090;2024-02-28T08:58:11;1.92;;;1.25;;
19802;SDS011;66074;50.764;6.090;2024-02-28T09:00:37;1.77;;;1.67;;
19802;SDS011;66074;50.764;6.090;2024-02-28T09:03:03;1.88;;;1.80;;
19802;SDS011;66074;50.764;6.090;2024-02-28T09:05:29;2.47;;;2.28;;
19802;SDS011;66074;50.764;6.090;2024-02-28T09:07:55;3.60;;;1.25;;
19802;SDS011;66074;50.764;6.090;2024-02-28T09:10:22;1.45;;;1.35;;
19802;SDS011;66074;50.764;6.090;2024-02-28T09:12:51;2.70;;;2.53;;
19802;SDS011;66074;50.764;6.090;2024-02-28T09:15:17;1.83;;;1.73;;
19802;SDS011;66074;50.764;6.090;2024-02-28T09:17:43;2.53;;;2.33;;
19802;SDS011;66074;50.764;6.090;2024-02-28T09:20:09;1.08;;;1.05;;
19802;SDS011;66074;50.764;6.090;2024-02-28T09:22:35;3.53;;;3.25;;
19802;SDS011;66074;50.764;6.090;2024-02-28T09:25:01;3.33;;;2.30;;
19802;SDS011;66074;50.764;6.090;2024-02-28T09:27:29;1.58;;;1.48;;
19802;SDS011;66074;50.764;6.090;2024-02-28T09:29:55;2.45;;;2.22;;
19802;SDS011;66074;50.764;6.090;2024-02-28T09:32:21;1.88;;;1.77;;
19802;SDS011;66074;50.764;6.090;2024-02-28T09:34:46;2.15;;;2.03;;
19802;SDS011;66074;50.764;6.090;2024-02-28T09:37:13;1.58;;;1.48;;
19802;SDS011;66074;50.764;6.090;2024-02-28T09:39:39;1.00;;;1.00;;
19802;SDS011;66074;50.764;6.090;2024-02-28T09:42:06;1.10;;;1.10;;
19802;SDS011;66074;50.764;6.090;2024-02-28T09:44:33;1.15;;;1.15;;
19802;SDS011;66074;50.764;6.090;2024-02-28T09:46:59;1.67;;;1.58;;
19802;SDS011;66074;50.764;6.090;2024-02-28T09:49:25;9.43;;;2.65;;
19802;SDS011;66074;50.764;6.090;2024-02-28T09:51:53;1.13;;;1.00;;
19802;SDS011;66074;50.764;6.090;2024-02-28T09:54:19;2.15;;;1.63;;
19802;SDS011;66074;50.764;6.090;2024-02-28T09:56:44;2.47;;;1.77;;
19802;SDS011;66074;50.764;6.090;2024-02-28T09:59:13;2.67;;;1.45;;
19802;SDS011;66074;50.764;6.090;2024-02-28T10:01:44;2.53;;;2.33;;
19802;SDS011;66074;50.764;6.090;2024-02-28T10:04:15;2.55;;;1.25;;
19802;SDS011;66074;50.764;6.090;2024-02-28T10:06:40;2.88;;;2.33;;
19802;SDS011;66074;50.764;6.090;2024-02-28T10:09:06;1.17;;;1.15;;
19802;SDS011;66074;50.764;6.090;2024-02-28T10:11:32;2.60;;;1.67;;
19802;SDS011;66074;50.764;6.090;2024-02-28T10:14:00;0.68;;;0.68;;
19802;SDS011;66074;50.764;6.090;2024-02-28T10:16:27;1.85;;;1.75;;
19802;SDS011;66074;50.764;6.090;2024-02-28T10:18:52;1.80;;;1.70;;
19802;SDS011;66074;50.764;6.090;2024-02-28T10:21:18;1.05;;;1.05;;
19802;SDS011;66074;50.764;6.090;2024-02-28T10:23:44;1.35;;;1.25;;
19802;SDS011;66074;50.764;6.090;2024-02-28T10:26:11;4.03;;;2.38;;
19802;SDS011;66074;50.764;6.090;2024-02-28T10:28:37;0.90;;;0.90;;
19802;SDS011;66074;50.764;6.090;2024-02-28T10:31:04;1.02;;;1.00;;
19802;SDS011;66074;50.764;6.090;2024-02-28T10:33:31;3.03;;;1.35;;
19802;SDS011;66074;50.764;6.090;2024-02-28T10:35:58;2.55;;;1.98;;
19802;SDS011;66074;50.764;6.090;2024-02-28T10:38:24;1.25;;;1.15;;
19802;SDS011;66074;50.764;6.090;2024-02-28T10:40:51;3.10;;;1.45;;
19802;SDS011;66074;50.764;6.090;2024-02-28T10:43:18;1.85;;;1.65;;
19802;SDS011;66074;50.764;6.090;2024-02-28T10:45:44;0.93;;;0.93;;
19802;SDS011;66074;50.764;6.090;2024-02-28T10:48:11;2.42;;;1.83;;
19802;SDS011;66074;50.764;6.090;2024-02-28T10:50:40;1.50;;;1.40;;
19802;SDS011;66074;50.764;6.090;2024-02-28T10:53:08;0.60;;;0.60;;
19802;SDS011;66074;50.764;6.090;2024-02-28T10:55:40;1.63;;;1.55;;
19802;SDS011;66074;50.764;6.090;2024-02-28T10:58:07;1.75;;;1.65;;
19802;SDS011;66074;50.764;6.090;2024-02-28T11:00:39;0.75;;;0.75;;
19802;SDS011;66074;50.764;6.090;2024-02-28T11:03:06;15.63;;;2.13;;
19802;SDS011;66074;50.764;6.090;2024-02-28T11:05:40;2.97;;;1.45;;
19802;SDS011;66074;50.764;6.090;2024-02-28T11:08:10;1.75;;;1.45;;
19802;SDS011;66074;50.764;6.090;2024-02-28T11:10:44;1.08;;;1.08;;
19802;SDS011;66074;50.764;6.090;2024-02-28T11:13:21;1.52;;;1.50;;
19802;SDS011;66074;50.764;6.090;2024-02-28T11:15:47;2.50;;;1.60;;
19802;SDS011;66074;50.764;6.090;2024-02-28T11:18:13;0.50;;;0.50;;
19802;SDS011;66074;50.764;6.090;2024-02-28T11:20:38;0.93;;;0.93;;
19802;SDS011;66074;50.764;6.090;2024-02-28T11:23:07;0.73;;;0.73;;
19802;SDS011;66074;50.764;6.090;2024-02-28T11:25:34;1.35;;;1.33;;
19802;SDS011;66074;50.764;6.090;2024-02-28T11:28:00;0.98;;;0.98;;
19802;SDS011;66074;50.764;6.090;2024-02-28T11:30:25;1.85;;;0.98;;
19802;SDS011;66074;50.764;6.090;2024-02-28T11:32:52;1.38;;;0.80;;
19802;SDS011;66074;50.764;6.090;2024-02-28T11:35:23;1.08;;;1.05;;
19802;SDS011;66074;50.764;6.090;2024-02-28T11:37:56;1.98;;;1.88;;
19802;SDS011;66074;50.764;6.090;2024-02-28T11:40:24;0.82;;;0.82;;
19802;SDS011;66074;50.764;6.090;2024-02-28T11:42:51;1.33;;;1.27;;
19802;SDS011;66074;50.764;6.090;2024-02-28T11:45:17;0.50;;;0.50;;
19802;SDS011;66074;50.764;6.090;2024-02-28T11:47:43;0.70;;;0.70;;
19802;SDS011;66074;50.764;6.090;2024-02-28T11:50:09;1.90;;;1.17;;
19802;SDS011;66074;50.764;6.090;2024-02-28T11:52:35;0.28;;;0.28;;
19802;SDS011;66074;50.764;6.090;2024-02-28T11:55:01;0.63;;;0.63;;
19802;SDS011;66074;50.764;6.090;2024-02-28T11:57:27;0.93;;;0.90;;
19802;SDS011;66074;50.764;6.090;2024-02-28T11:59:54;0.63;;;0.63;;
19802;SDS011;66074;50.764;6.090;2024-02-28T12:02:22;0.65;;;0.65;;
19802;SDS011;66074;50.764;6.090;2024-02-28T12:04:52;0.40;;;0.40;;
19802;SDS011;66074;50.764;6.090;2024-02-28T12:07:19;0.20;;;0.20;;
19802;SDS011;66074;50.764;6.090;2024-02-28T12:09:45;0.55;;;0.55;;
19802;SDS011;66074;50.764;6.090;2024-02-28T12:12:13;0.90;;;0.90;;
19802;SDS011;66074;50.764;6.090;2024-02-28T12:14:39;0.75;;;0.75;;
19802;SDS011;66074;50.764;6.090;2024-02-28T12:17:05;0.88;;;0.57;;
19802;SDS011;66074;50.764;6.090;2024-02-28T12:19:30;1.25;;;0.68;;
19802;SDS011;66074;50.764;6.090;2024-02-28T12:21:56;1.45;;;0.57;;
19802;SDS011;66074;50.764;6.090;2024-02-28T12:24:23;0.30;;;0.30;;
19802;SDS011;66074;50.764;6.090;2024-02-28T12:26:49;0.95;;;0.50;;
19802;SDS011;66074;50.764;6.090;2024-02-28T12:29:14;0.82;;;0.82;;
19802;SDS011;66074;50.764;6.090;2024-02-28T12:31:40;0.60;;;0.60;;
19802;SDS011;66074;50.764;6.090;2024-02-28T12:34:06;0.43;;;0.43;;
19802;SDS011;66074;50.764;6.090;2024-02-28T12:36:31;0.38;;;0.38;;
19802;SDS011;66074;50.764;6.090;2024-02-28T12:38:57;1.23;;;0.65;;
19802;SDS011;66074;50.764;6.090;2024-02-28T12:41:25;0.70;;;0.70;;
19802;SDS011;66074;50.764;6.090;2024-02-28T12:43:51;1.75;;;0.95;;
19802;SDS011;66074;50.764;6.090;2024-02-28T12:46:17;2.00;;;0.95;;
19802;SDS011;66074;50.764;6.090;2024-02-28T12:48:42;0.20;;;0.20;;
19802;SDS011;66074;50.764;6.090;2024-02-28T12:51:10;0.40;;;0.40;;
19802;SDS011;66074;50.764;6.090;2024-02-28T12:53:45;1.75;;;0.40;;
19802;SDS011;66074;50.764;6.090;2024-02-28T12:56:11;0.32;;;0.32;;
19802;SDS011;66074;50.764;6.090;2024-02-28T12:58:36;0.30;;;0.30;;
19802;SDS011;66074;50.764;6.090;2024-02-28T13:01:02;0.20;;;0.20;;
19802;SDS011;66074;50.764;6.090;2024-02-28T13:03:29;0.75;;;0.73;;
19802;SDS011;66074;50.764;6.090;2024-02-28T13:05:55;0.70;;;0.30;;
19802;SDS011;66074;50.764;6.090;2024-02-28T13:08:21;0.77;;;0.77;;
19802;SDS011;66074;50.764;6.090;2024-02-28T13:10:46;0.80;;;0.40;;
19802;SDS011;66074;50.764;6.090;2024-02-28T13:13:12;0.45;;;0.45;;
19802;SDS011;66074;50.764;6.090;2024-02-28T13:15:38;0.20;;;0.20;;
19802;SDS011;66074;50.764;6.090;2024-02-28T13:18:05;0.28;;;0.28;;
19802;SDS011;66074;50.764;6.090;2024-02-28T13:20:34;0.20;;;0.20;;
19802;SDS011;66074;50.764;6.090;2024-02-28T13:23:00;0.20;;;0.20;;
19802;SDS011;66074;50.764;6.090;2024-02-28T13:25:26;0.38;;;0.38;;
19802;SDS011;66074;50.764;6.090;2024-02-28T13:27:51;0.32;;;0.30;;
19802;SDS011;66074;50.764;6.090;2024-02-28T13:30:17;0.25;;;0.25;;
19802;SDS011;66074;50.764;6.090;2024-02-28T13:32:42;0.25;;;0.25;;
19802;SDS011;66074;50.764;6.090;2024-02-28T13:35:08;0.30;;;0.30;;
19802;SDS011;66074;50.764;6.090;2024-02-28T13:37:35;1.08;;;0.57;;
19802;SDS011;66074;50.764;6.090;2024-02-28T13:40:02;0.20;;;0.20;;
19802;SDS011;66074;50.764;6.090;2024-02-28T13:42:29;0.52;;;0.52;;
19802;SDS011;66074;50.764;6.090;2024-02-28T13:44:55;0.55;;;0.55;;
19802;SDS011;66074;50.764;6.090;2024-02-28T13:47:20;0.65;;;0.65;;
19802;SDS011;66074;50.764;6.090;2024-02-28T13:49:46;0.47;;;0.47;;
19802;SDS011;66074;50.764;6.090;2024-02-28T13:52:12;0.70;;;0.70;;
19802;SDS011;66074;50.764;6.090;2024-02-28T13:54:38;0.45;;;0.45;;
19802;SDS011;66074;50.764;6.090;2024-02-28T13:57:03;2.30;;;0.98;;
19802;SDS011;66074;50.764;6.090;2024-02-28T13:59:30;0.95;;;0.82;;
19802;SDS011;66074;50.764;6.090;2024-02-28T14:01:56;0.30;;;0.30;;
19802;SDS011;66074;50.764;6.090;2024-02-28T14:04:22;0.40;;;0.40;;
19802;SDS011;66074;50.764;6.090;2024-02-28T14:06:47;0.50;;;0.50;;
19802;SDS011;66074;50.764;6.090;2024-02-28T14:09:14;0.20;;;0.20;;
19802;SDS011;66074;50.764;6.090;2024-02-28T14:11:40;0.50;;;0.50;;
19802;SDS011;66074;50.764;6.090;2024-02-28T14:14:05;0.47;;;0.40;;
19802;SDS011;66074;50.764;6.090;2024-02-28T14:16:32;0.77;;;0.77;;
19802;SDS011;66074;50.764;6.090;2024-02-28T14:18:57;1.60;;;0.63;;
19802;SDS011;66074;50.764;6.090;2024-02-28T14:21:23;0.73;;;0.50;;
19802;SDS011;66074;50.764;6.090;2024-02-28T14:23:50;0.30;;;0.30;;
19802;SDS011;66074;50.764;6.090;2024-02-28T14:26:15;0.20;;;0.20;;
19802;SDS011;66074;50.764;6.090;2024-02-28T14:28:42;0.52;;;0.50;;
19802;SDS011;66074;50.764;6.090;2024-02-28T14:31:08;0.28;;;0.28;;
19802;SDS011;66074;50.764;6.090;2024-02-28T14:33:34;0.50;;;0.50;;
19802;SDS011;66074;50.764;6.090;2024-02-28T14:36:01;0.28;;;0.28;;
19802;SDS011;66074;50.764;6.090;2024-02-28T14:38:30;0.40;;;0.40;;
19802;SDS011;66074;50.764;6.090;2024-02-28T14:40:56;0.20;;;0.20;;
19802;SDS011;66074;50.764;6.090;2024-02-28T14:43:21;0.30;;;0.30;;